sensor_id;sensor_type;location;lat;lon;timestamp;temperature;humidity
7496;DHT22;3789;47.064;15.482;2023-03-12T00:02:31;2.50;97.90
7496;DHT22;3789;47.064;15.482;2023-03-12T00:05:08;2.60;97.70
7496;DHT22;3789;47.064;15.482;2023-03-12T00:07:45;2.80;97.60
7496;DHT22;3789;47.064;15.482;2023-03-12T00:10:14;3.00;96.80
7496;DHT22;3789;47.064;15.482;2023-03-12T00:12:42;2.90;98.40
7496;DHT22;3789;47.064;15.482;2023-03-12T00:15:10;2.40;95.80
7496;DHT22;3789;47.064;15.482;2023-03-12T00:17:39;0.50;90.80
7496;DHT22;3789;47.064;15.482;2023-03-12T00:20:08;-1.40;91.10
7496;DHT22;3789;47.064;15.482;2023-03-12T00:22:38;-2.70;92.90
7496;DHT22;3789;47.064;15.482;2023-03-12T00:25:10;-3.40;95.60
7496;DHT22;3789;47.064;15.482;2023-03-12T00:27:39;-3.70;96.40
7496;DHT22;3789;47.064;15.482;2023-03-12T00:30:08;-4.30;96.90
7496;DHT22;3789;47.064;15.482;2023-03-12T00:32:40;-4.70;97.70
7496;DHT22;3789;47.064;15.482;2023-03-12T00:35:09;-5.00;98.90
7496;DHT22;3789;47.064;15.482;2023-03-12T00:37:45;-5.00;99.90
7496;DHT22;3789;47.064;15.482;2023-03-12T00:40:13;-5.20;99.90
7496;DHT22;3789;47.064;15.482;2023-03-12T00:42:41;-5.30;99.90
7496;DHT22;3789;47.064;15.482;2023-03-12T00:45:10;-5.50;99.90
7496;DHT22;3789;47.064;15.482;2023-03-12T00:47:39;-5.60;99.90
7496;DHT22;3789;47.064;15.482;2023-03-12T00:50:06;-5.80;99.90
7496;DHT22;3789;47.064;15.482;2023-03-12T00:52:34;-5.90;99.90
7496;DHT22;3789;47.064;15.482;2023-03-12T00:55:03;-6.00;99.90
7496;DHT22;3789;47.064;15.482;2023-03-12T00:57:41;-6.10;99.90
7496;DHT22;3789;47.064;15.482;2023-03-12T01:00:11;-6.20;99.90
7496;DHT22;3789;47.064;15.482;2023-03-12T01:02:40;-6.20;99.90
7496;DHT22;3789;47.064;15.482;2023-03-12T01:09:00;-6.40;99.90
7496;DHT22;3789;47.064;15.482;2023-03-12T01:11:30;-6.50;99.90
7496;DHT22;3789;47.064;15.482;2023-03-12T01:14:08;-6.70;99.90
7496;DHT22;3789;47.064;15.482;2023-03-12T01:16:37;-6.80;99.90
7496;DHT22;3789;47.064;15.482;2023-03-12T01:19:04;-6.80;99.90
7496;DHT22;3789;47.064;15.482;2023-03-12T01:21:33;-6.90;99.90
7496;DHT22;3789;47.064;15.482;2023-03-12T01:24:01;-6.90;99.90
7496;DHT22;3789;47.064;15.482;2023-03-12T01:26:32;-6.90;99.90
7496;DHT22;3789;47.064;15.482;2023-03-12T01:29:00;-7.00;99.90
7496;DHT22;3789;47.064;15.482;2023-03-12T01:31:28;-7.00;99.90
7496;DHT22;3789;47.064;15.482;2023-03-12T01:33:56;-7.10;99.90
7496;DHT22;3789;47.064;15.482;2023-03-12T01:36:29;-7.10;99.90
7496;DHT22;3789;47.064;15.482;2023-03-12T01:38:59;-7.20;99.90
7496;DHT22;3789;47.064;15.482;2023-03-12T01:41:36;-7.20;99.90
7496;DHT22;3789;47.064;15.482;2023-03-12T01:44:05;-7.10;99.90
7496;DHT22;3789;47.064;15.482;2023-03-12T01:46:43;-7.00;99.90
7496;DHT22;3789;47.064;15.482;2023-03-12T01:49:30;-7.10;99.90
7496;DHT22;3789;47.064;15.482;2023-03-12T01:52:11;-7.10;99.90
7496;DHT22;3789;47.064;15.482;2023-03-12T01:57:47;-7.20;99.90
7496;DHT22;3789;47.064;15.482;2023-03-12T02:00:26;-7.20;99.90
7496;DHT22;3789;47.064;15.482;2023-03-12T02:03:18;-7.30;99.90
7496;DHT22;3789;47.064;15.482;2023-03-12T02:06:12;-7.30;99.90
7496;DHT22;3789;47.064;15.482;2023-03-12T02:08:48;-6.80;99.90
7496;DHT22;3789;47.064;15.482;2023-03-12T02:11:31;-5.90;99.90
7496;DHT22;3789;47.064;15.482;2023-03-12T02:14:01;-5.20;99.90
7496;DHT22;3789;47.064;15.482;2023-03-12T02:16:32;-4.60;99.90
7496;DHT22;3789;47.064;15.482;2023-03-12T02:19:07;-4.20;99.90
7496;DHT22;3789;47.064;15.482;2023-03-12T02:21:40;-3.80;99.90
7496;DHT22;3789;47.064;15.482;2023-03-12T02:26:46;-3.00;99.90
7496;DHT22;3789;47.064;15.482;2023-03-12T02:29:19;-2.70;99.90
7496;DHT22;3789;47.064;15.482;2023-03-12T02:31:51;-2.40;99.90
7496;DHT22;3789;47.064;15.482;2023-03-12T02:34:23;-2.10;99.90
7496;DHT22;3789;47.064;15.482;2023-03-12T02:36:51;-1.80;99.90
7496;DHT22;3789;47.064;15.482;2023-03-12T02:39:22;-1.60;99.90
7496;DHT22;3789;47.064;15.482;2023-03-12T02:41:57;-1.40;99.90
7496;DHT22;3789;47.064;15.482;2023-03-12T02:44:38;-1.40;99.90
7496;DHT22;3789;47.064;15.482;2023-03-12T02:47:05;-1.30;99.90
7496;DHT22;3789;47.064;15.482;2023-03-12T02:49:35;-1.30;99.90
7496;DHT22;3789;47.064;15.482;2023-03-12T02:52:04;-1.30;99.90
7496;DHT22;3789;47.064;15.482;2023-03-12T02:54:31;-1.20;99.90
7496;DHT22;3789;47.064;15.482;2023-03-12T02:56:59;-1.10;99.90
7496;DHT22;3789;47.064;15.482;2023-03-12T02:59:30;-1.00;99.90
7496;DHT22;3789;47.064;15.482;2023-03-12T03:01:59;-0.90;99.90
7496;DHT22;3789;47.064;15.482;2023-03-12T03:04:30;-0.80;99.90
7496;DHT22;3789;47.064;15.482;2023-03-12T03:07:04;-0.70;99.90
7496;DHT22;3789;47.064;15.482;2023-03-12T03:09:33;-0.50;99.90
7496;DHT22;3789;47.064;15.482;2023-03-12T03:12:00;-0.50;99.90
7496;DHT22;3789;47.064;15.482;2023-03-12T03:14:30;-0.40;99.90
7496;DHT22;3789;47.064;15.482;2023-03-12T03:16:58;-0.30;99.90
7496;DHT22;3789;47.064;15.482;2023-03-12T03:19:29;-0.20;99.90
7496;DHT22;3789;47.064;15.482;2023-03-12T03:21:56;-0.20;99.90
7496;DHT22;3789;47.064;15.482;2023-03-12T03:24:25;-0.20;99.90
7496;DHT22;3789;47.064;15.482;2023-03-12T03:26:54;-0.10;99.90
7496;DHT22;3789;47.064;15.482;2023-03-12T03:29:33;-0.20;99.90
7496;DHT22;3789;47.064;15.482;2023-03-12T03:32:10;-0.20;99.90
7496;DHT22;3789;47.064;15.482;2023-03-12T03:34:40;-0.20;99.90
7496;DHT22;3789;47.064;15.482;2023-03-12T03:37:08;-0.10;99.90
7496;DHT22;3789;47.064;15.482;2023-03-12T03:39:38;-0.10;99.90
7496;DHT22;3789;47.064;15.482;2023-03-12T03:42:14;-0.10;99.90
7496;DHT22;3789;47.064;15.482;2023-03-12T03:44:42;-0.10;99.90
7496;DHT22;3789;47.064;15.482;2023-03-12T03:47:10;-0.10;99.90
7496;DHT22;3789;47.064;15.482;2023-03-12T03:49:39;-0.10;99.90
7496;DHT22;3789;47.064;15.482;2023-03-12T03:52:08;-0.10;99.90
7496;DHT22;3789;47.064;15.482;2023-03-12T03:54:38;-0.10;99.90
7496;DHT22;3789;47.064;15.482;2023-03-12T03:57:09;-0.10;99.90
7496;DHT22;3789;47.064;15.482;2023-03-12T03:59:40;-0.10;99.90
7496;DHT22;3789;47.064;15.482;2023-03-12T04:02:17;-0.10;99.90
7496;DHT22;3789;47.064;15.482;2023-03-12T04:04:47;-0.10;99.90
7496;DHT22;3789;47.064;15.482;2023-03-12T04:07:16;-0.10;99.90
7496;DHT22;3789;47.064;15.482;2023-03-12T04:09:47;-0.10;99.90
7496;DHT22;3789;47.064;15.482;2023-03-12T04:12:17;-0.10;99.90
7496;DHT22;3789;47.064;15.482;2023-03-12T04:14:46;-0.20;99.90
7496;DHT22;3789;47.064;15.482;2023-03-12T04:17:13;-0.10;99.90
7496;DHT22;3789;47.064;15.482;2023-03-12T04:19:42;-0.10;99.90
7496;DHT22;3789;47.064;15.482;2023-03-12T04:22:10;-0.10;99.90
7496;DHT22;3789;47.064;15.482;2023-03-12T04:24:39;-0.10;99.90
7496;DHT22;3789;47.064;15.482;2023-03-12T04:27:07;-0.10;99.90
7496;DHT22;3789;47.064;15.482;2023-03-12T04:29:36;-0.20;99.90
7496;DHT22;3789;47.064;15.482;2023-03-12T04:32:10;-0.30;99.90
7496;DHT22;3789;47.064;15.482;2023-03-12T04:34:39;-0.40;99.90
7496;DHT22;3789;47.064;15.482;2023-03-12T04:37:08;-0.50;99.90
7496;DHT22;3789;47.064;15.482;2023-03-12T04:39:38;-0.60;99.90
7496;DHT22;3789;47.064;15.482;2023-03-12T04:42:08;-0.70;99.90
7496;DHT22;3789;47.064;15.482;2023-03-12T04:44:37;-0.70;99.90
7496;DHT22;3789;47.064;15.482;2023-03-12T04:47:07;-0.60;99.90
7496;DHT22;3789;47.064;15.482;2023-03-12T04:49:43;-0.70;99.90
7496;DHT22;3789;47.064;15.482;2023-03-12T04:52:10;-0.60;99.90
7496;DHT22;3789;47.064;15.482;2023-03-12T04:54:39;-0.50;99.90
7496;DHT22;3789;47.064;15.482;2023-03-12T04:57:16;-0.60;99.90
7496;DHT22;3789;47.064;15.482;2023-03-12T04:59:46;-0.60;99.90
7496;DHT22;3789;47.064;15.482;2023-03-12T05:02:15;-0.60;99.90
7496;DHT22;3789;47.064;15.482;2023-03-12T05:04:55;-0.70;99.90
7496;DHT22;3789;47.064;15.482;2023-03-12T05:07:27;-0.80;99.90
7496;DHT22;3789;47.064;15.482;2023-03-12T05:09:56;-0.80;99.90
7496;DHT22;3789;47.064;15.482;2023-03-12T05:12:27;-0.80;99.90
7496;DHT22;3789;47.064;15.482;2023-03-12T05:14:59;-0.80;99.90
7496;DHT22;3789;47.064;15.482;2023-03-12T05:17:28;-0.80;99.90
7496;DHT22;3789;47.064;15.482;2023-03-12T05:19:59;-0.80;99.90
7496;DHT22;3789;47.064;15.482;2023-03-12T05:22:31;-0.80;99.90
7496;DHT22;3789;47.064;15.482;2023-03-12T05:25:03;-0.90;99.90
7496;DHT22;3789;47.064;15.482;2023-03-12T05:27:32;-0.80;99.90
7496;DHT22;3789;47.064;15.482;2023-03-12T05:30:10;-0.80;99.90
7496;DHT22;3789;47.064;15.482;2023-03-12T05:32:39;-0.70;99.90
7496;DHT22;3789;47.064;15.482;2023-03-12T05:35:09;-0.70;99.90
7496;DHT22;3789;47.064;15.482;2023-03-12T05:37:38;-0.60;99.90
7496;DHT22;3789;47.064;15.482;2023-03-12T05:40:11;-0.50;99.90
7496;DHT22;3789;47.064;15.482;2023-03-12T05:42:47;-0.50;99.90
7496;DHT22;3789;47.064;15.482;2023-03-12T05:45:16;-0.40;99.90
7496;DHT22;3789;47.064;15.482;2023-03-12T05:47:53;-0.30;99.90
7496;DHT22;3789;47.064;15.482;2023-03-12T05:50:21;-0.20;99.90
7496;DHT22;3789;47.064;15.482;2023-03-12T05:52:49;0.00;99.90
7496;DHT22;3789;47.064;15.482;2023-03-12T05:55:26;0.10;99.90
7496;DHT22;3789;47.064;15.482;2023-03-12T05:57:55;0.10;99.90
7496;DHT22;3789;47.064;15.482;2023-03-12T06:00:22;0.20;99.90
7496;DHT22;3789;47.064;15.482;2023-03-12T06:02:52;0.50;99.90
7496;DHT22;3789;47.064;15.482;2023-03-12T06:05:24;1.10;99.90
7496;DHT22;3789;47.064;15.482;2023-03-12T06:08:10;1.70;99.90
7496;DHT22;3789;47.064;15.482;2023-03-12T06:10:37;2.40;99.90
7496;DHT22;3789;47.064;15.482;2023-03-12T06:13:06;2.80;99.90
7496;DHT22;3789;47.064;15.482;2023-03-12T06:15:36;3.10;99.90
7496;DHT22;3789;47.064;15.482;2023-03-12T06:18:04;3.50;99.90
7496;DHT22;3789;47.064;15.482;2023-03-12T06:20:33;3.70;99.90
7496;DHT22;3789;47.064;15.482;2023-03-12T06:23:00;4.10;99.90
7496;DHT22;3789;47.064;15.482;2023-03-12T06:25:31;4.40;99.90
7496;DHT22;3789;47.064;15.482;2023-03-12T06:28:03;4.60;99.40
7496;DHT22;3789;47.064;15.482;2023-03-12T06:30:31;4.90;98.60
7496;DHT22;3789;47.064;15.482;2023-03-12T06:33:01;5.10;98.90
7496;DHT22;3789;47.064;15.482;2023-03-12T06:35:36;5.10;97.10
7496;DHT22;3789;47.064;15.482;2023-03-12T06:38:06;5.10;97.50
7496;DHT22;3789;47.064;15.482;2023-03-12T06:40:34;5.30;97.30
7496;DHT22;3789;47.064;15.482;2023-03-12T06:43:02;5.40;96.50
7496;DHT22;3789;47.064;15.482;2023-03-12T06:45:37;5.60;96.10
7496;DHT22;3789;47.064;15.482;2023-03-12T06:48:05;5.90;95.80
7496;DHT22;3789;47.064;15.482;2023-03-12T06:50:35;5.90;95.50
7496;DHT22;3789;47.064;15.482;2023-03-12T06:53:08;5.70;95.00
7496;DHT22;3789;47.064;15.482;2023-03-12T06:55:39;5.90;94.70
7496;DHT22;3789;47.064;15.482;2023-03-12T06:58:15;5.90;95.00
7496;DHT22;3789;47.064;15.482;2023-03-12T07:00:44;6.10;94.50
7496;DHT22;3789;47.064;15.482;2023-03-12T07:03:12;6.60;94.30
7496;DHT22;3789;47.064;15.482;2023-03-12T07:05:46;6.80;93.70
7496;DHT22;3789;47.064;15.482;2023-03-12T07:08:14;6.80;93.80
7496;DHT22;3789;47.064;15.482;2023-03-12T07:10:43;6.80;93.40
7496;DHT22;3789;47.064;15.482;2023-03-12T07:13:18;6.60;93.10
7496;DHT22;3789;47.064;15.482;2023-03-12T07:15:46;6.60;93.50
7496;DHT22;3789;47.064;15.482;2023-03-12T07:18:23;6.40;93.70
7496;DHT22;3789;47.064;15.482;2023-03-12T07:20:53;6.40;93.60
7496;DHT22;3789;47.064;15.482;2023-03-12T07:23:23;6.80;94.20
7496;DHT22;3789;47.064;15.482;2023-03-12T07:25:54;7.30;93.50
7496;DHT22;3789;47.064;15.482;2023-03-12T07:28:30;7.70;92.70
7496;DHT22;3789;47.064;15.482;2023-03-12T07:31:08;8.60;92.10
7496;DHT22;3789;47.064;15.482;2023-03-12T07:33:45;9.00;90.80
7496;DHT22;3789;47.064;15.482;2023-03-12T07:36:16;9.60;90.30
7496;DHT22;3789;47.064;15.482;2023-03-12T07:38:45;10.00;85.80
7496;DHT22;3789;47.064;15.482;2023-03-12T07:41:17;10.10;86.50
7496;DHT22;3789;47.064;15.482;2023-03-12T07:43:44;10.30;86.60
7496;DHT22;3789;47.064;15.482;2023-03-12T07:46:16;10.80;86.30
7496;DHT22;3789;47.064;15.482;2023-03-12T07:48:46;11.20;84.20
7496;DHT22;3789;47.064;15.482;2023-03-12T07:51:14;11.70;81.90
7496;DHT22;3789;47.064;15.482;2023-03-12T07:53:43;12.00;82.30
7496;DHT22;3789;47.064;15.482;2023-03-12T07:56:13;12.90;79.40
7496;DHT22;3789;47.064;15.482;2023-03-12T07:58:42;13.40;75.90
7496;DHT22;3789;47.064;15.482;2023-03-12T08:01:11;13.60;76.20
7496;DHT22;3789;47.064;15.482;2023-03-12T08:03:40;14.50;76.40
7496;DHT22;3789;47.064;15.482;2023-03-12T08:06:12;15.20;75.50
7496;DHT22;3789;47.064;15.482;2023-03-12T08:08:40;15.80;70.20
7496;DHT22;3789;47.064;15.482;2023-03-12T08:11:10;16.00;69.60
7496;DHT22;3789;47.064;15.482;2023-03-12T08:13:57;16.60;68.80
7496;DHT22;3789;47.064;15.482;2023-03-12T08:16:26;16.90;66.60
7496;DHT22;3789;47.064;15.482;2023-03-12T08:18:55;17.20;62.80
7496;DHT22;3789;47.064;15.482;2023-03-12T08:21:31;17.10;63.30
7496;DHT22;3789;47.064;15.482;2023-03-12T08:23:58;17.00;62.90
7496;DHT22;3789;47.064;15.482;2023-03-12T08:26:26;16.50;65.50
7496;DHT22;3789;47.064;15.482;2023-03-12T08:28:57;16.00;66.30
7496;DHT22;3789;47.064;15.482;2023-03-12T08:31:29;15.30;66.10
7496;DHT22;3789;47.064;15.482;2023-03-12T08:34:01;14.70;68.60
7496;DHT22;3789;47.064;15.482;2023-03-12T08:36:28;14.20;66.40
7496;DHT22;3789;47.064;15.482;2023-03-12T08:38:59;13.50;66.40
7496;DHT22;3789;47.064;15.482;2023-03-12T08:41:30;13.00;68.00
7496;DHT22;3789;47.064;15.482;2023-03-12T08:43:58;12.70;67.70
7496;DHT22;3789;47.064;15.482;2023-03-12T08:46:29;12.30;68.20
7496;DHT22;3789;47.064;15.482;2023-03-12T08:49:06;12.00;69.10
7496;DHT22;3789;47.064;15.482;2023-03-12T08:51:35;11.70;70.80
7496;DHT22;3789;47.064;15.482;2023-03-12T08:54:03;11.20;71.10
7496;DHT22;3789;47.064;15.482;2023-03-12T08:56:41;10.90;73.00
7496;DHT22;3789;47.064;15.482;2023-03-12T08:59:11;10.90;74.60
7496;DHT22;3789;47.064;15.482;2023-03-12T09:01:40;10.90;77.90
7496;DHT22;3789;47.064;15.482;2023-03-12T09:04:10;10.80;74.70
7496;DHT22;3789;47.064;15.482;2023-03-12T09:06:42;10.90;74.90
7496;DHT22;3789;47.064;15.482;2023-03-12T09:09:11;10.50;72.60
7496;DHT22;3789;47.064;15.482;2023-03-12T09:11:40;10.50;75.10
7496;DHT22;3789;47.064;15.482;2023-03-12T09:14:10;10.20;74.90
7496;DHT22;3789;47.064;15.482;2023-03-12T09:16:59;10.20;76.80
7496;DHT22;3789;47.064;15.482;2023-03-12T09:19:31;10.20;77.30
7496;DHT22;3789;47.064;15.482;2023-03-12T09:21:58;10.20;80.00
7496;DHT22;3789;47.064;15.482;2023-03-12T09:24:27;10.40;77.30
7496;DHT22;3789;47.064;15.482;2023-03-12T09:27:03;10.70;78.50
7496;DHT22;3789;47.064;15.482;2023-03-12T09:29:31;10.80;78.80
7496;DHT22;3789;47.064;15.482;2023-03-12T09:31:59;10.60;76.90
7496;DHT22;3789;47.064;15.482;2023-03-12T09:34:31;10.70;78.70
7496;DHT22;3789;47.064;15.482;2023-03-12T09:37:01;10.80;76.80
7496;DHT22;3789;47.064;15.482;2023-03-12T09:39:29;10.90;73.40
7496;DHT22;3789;47.064;15.482;2023-03-12T09:41:58;10.60;77.60
7496;DHT22;3789;47.064;15.482;2023-03-12T09:44:43;10.50;77.20
7496;DHT22;3789;47.064;15.482;2023-03-12T09:47:42;10.60;75.20
7496;DHT22;3789;47.064;15.482;2023-03-12T09:50:33;10.70;75.50
7496;DHT22;3789;47.064;15.482;2023-03-12T09:55:56;10.50;73.00
7496;DHT22;3789;47.064;15.482;2023-03-12T09:58:37;10.40;73.30
7496;DHT22;3789;47.064;15.482;2023-03-12T10:02:12;10.40;74.60
7496;DHT22;3789;47.064;15.482;2023-03-12T10:05:03;10.30;74.00
7496;DHT22;3789;47.064;15.482;2023-03-12T10:08:19;10.20;75.60
7496;DHT22;3789;47.064;15.482;2023-03-12T10:17:28;3.40;75.80
7496;DHT22;3789;47.064;15.482;2023-03-12T10:20:28;1.80;78.70
7496;DHT22;3789;47.064;15.482;2023-03-12T10:23:18;0.90;83.20
7496;DHT22;3789;47.064;15.482;2023-03-12T10:26:04;0.50;85.70
7496;DHT22;3789;47.064;15.482;2023-03-12T10:28:44;0.30;89.20
7496;DHT22;3789;47.064;15.482;2023-03-12T10:31:28;0.30;90.40
7496;DHT22;3789;47.064;15.482;2023-03-12T10:34:01;0.40;90.90
7496;DHT22;3789;47.064;15.482;2023-03-12T10:36:39;0.40;91.80
7496;DHT22;3789;47.064;15.482;2023-03-12T10:39:18;0.70;94.40
7496;DHT22;3789;47.064;15.482;2023-03-12T10:41:48;0.90;93.40
7496;DHT22;3789;47.064;15.482;2023-03-12T10:44:26;1.50;94.20
7496;DHT22;3789;47.064;15.482;2023-03-12T10:47:32;1.40;93.60
7496;DHT22;3789;47.064;15.482;2023-03-12T10:52:53;1.20;95.10
7496;DHT22;3789;47.064;15.482;2023-03-12T10:55:39;1.20;94.90
7496;DHT22;3789;47.064;15.482;2023-03-12T10:58:21;1.20;95.90
7496;DHT22;3789;47.064;15.482;2023-03-12T11:01:00;2.40;99.90
7496;DHT22;3789;47.064;15.482;2023-03-12T11:03:33;3.80;99.90
7496;DHT22;3789;47.064;15.482;2023-03-12T11:06:06;5.00;98.70
7496;DHT22;3789;47.064;15.482;2023-03-12T11:09:00;6.30;95.50
7496;DHT22;3789;47.064;15.482;2023-03-12T11:11:47;7.40;94.70
7496;DHT22;3789;47.064;15.482;2023-03-12T11:14:25;8.10;93.20
7496;DHT22;3789;47.064;15.482;2023-03-12T11:16:56;8.50;92.50
7496;DHT22;3789;47.064;15.482;2023-03-12T11:19:34;8.80;90.60
7496;DHT22;3789;47.064;15.482;2023-03-12T11:22:04;9.20;89.70
7496;DHT22;3789;47.064;15.482;2023-03-12T11:24:54;9.40;95.60
7496;DHT22;3789;47.064;15.482;2023-03-12T11:30:25;9.80;89.20
7496;DHT22;3789;47.064;15.482;2023-03-12T11:33:13;10.00;87.80
7496;DHT22;3789;47.064;15.482;2023-03-12T11:54:47;10.90;83.00
7496;DHT22;3789;47.064;15.482;2023-03-12T11:56:57;11.00;78.40
7496;DHT22;3789;47.064;15.482;2023-03-12T12:08:46;11.40;80.80
7496;DHT22;3789;47.064;15.482;2023-03-12T12:11:41;11.20;78.60
7496;DHT22;3789;47.064;15.482;2023-03-12T12:14:40;11.10;77.70
7496;DHT22;3789;47.064;15.482;2023-03-12T12:20:28;10.20;82.00
7496;DHT22;3789;47.064;15.482;2023-03-12T12:23:13;10.10;82.00
7496;DHT22;3789;47.064;15.482;2023-03-12T12:34:54;10.30;81.40
7496;DHT22;3789;47.064;15.482;2023-03-12T12:37:57;10.50;82.20
7496;DHT22;3789;47.064;15.482;2023-03-12T12:40:39;10.70;80.40
7496;DHT22;3789;47.064;15.482;2023-03-12T12:43:29;10.60;80.60
7496;DHT22;3789;47.064;15.482;2023-03-12T12:46:12;9.80;80.00
7496;DHT22;3789;47.064;15.482;2023-03-12T12:48:49;9.80;84.20
7496;DHT22;3789;47.064;15.482;2023-03-12T12:51:24;10.10;81.10
7496;DHT22;3789;47.064;15.482;2023-03-12T13:02:52;10.80;82.60
7496;DHT22;3789;47.064;15.482;2023-03-12T13:05:42;11.00;80.20
7496;DHT22;3789;47.064;15.482;2023-03-12T13:11:37;11.20;80.40
7496;DHT22;3789;47.064;15.482;2023-03-12T13:14:18;11.00;80.40
7496;DHT22;3789;47.064;15.482;2023-03-12T13:16:49;11.00;80.20
7496;DHT22;3789;47.064;15.482;2023-03-12T13:19:38;11.10;82.30
7496;DHT22;3789;47.064;15.482;2023-03-12T13:25:40;11.00;80.00
7496;DHT22;3789;47.064;15.482;2023-03-12T13:28:37;11.20;81.40
7496;DHT22;3789;47.064;15.482;2023-03-12T13:31:42;11.40;82.90
7496;DHT22;3789;47.064;15.482;2023-03-12T13:37:26;11.60;83.90
7496;DHT22;3789;47.064;15.482;2023-03-12T13:39:45;11.60;79.50
7496;DHT22;3789;47.064;15.482;2023-03-12T13:42:26;11.40;80.10
7496;DHT22;3789;47.064;15.482;2023-03-12T13:44:55;11.30;81.00
7496;DHT22;3789;47.064;15.482;2023-03-12T13:47:43;11.20;80.90
7496;DHT22;3789;47.064;15.482;2023-03-12T13:50:14;11.30;82.20
7496;DHT22;3789;47.064;15.482;2023-03-12T13:53:25;11.40;82.30
7496;DHT22;3789;47.064;15.482;2023-03-12T13:56:08;11.50;83.80
7496;DHT22;3789;47.064;15.482;2023-03-12T13:59:02;11.60;82.80
7496;DHT22;3789;47.064;15.482;2023-03-12T14:01:51;11.50;86.70
7496;DHT22;3789;47.064;15.482;2023-03-12T14:04:32;11.60;82.60
7496;DHT22;3789;47.064;15.482;2023-03-12T14:07:45;11.50;79.40
7496;DHT22;3789;47.064;15.482;2023-03-12T14:16:53;11.60;82.70
7496;DHT22;3789;47.064;15.482;2023-03-12T14:19:30;11.70;81.80
7496;DHT22;3789;47.064;15.482;2023-03-12T14:22:05;11.60;80.20
7496;DHT22;3789;47.064;15.482;2023-03-12T14:24:41;11.40;79.40
7496;DHT22;3789;47.064;15.482;2023-03-12T14:27:20;11.20;81.10
7496;DHT22;3789;47.064;15.482;2023-03-12T14:30:11;11.10;80.30
7496;DHT22;3789;47.064;15.482;2023-03-12T14:32:48;11.10;80.30
7496;DHT22;3789;47.064;15.482;2023-03-12T14:35:37;11.10;79.60
7496;DHT22;3789;47.064;15.482;2023-03-12T14:38:25;11.10;78.40
7496;DHT22;3789;47.064;15.482;2023-03-12T14:41:33;11.10;80.20
7496;DHT22;3789;47.064;15.482;2023-03-12T14:44:20;11.20;81.20
7496;DHT22;3789;47.064;15.482;2023-03-12T14:47:01;11.20;80.20
7496;DHT22;3789;47.064;15.482;2023-03-12T14:49:30;11.00;80.20
7496;DHT22;3789;47.064;15.482;2023-03-12T14:52:00;10.90;82.80
7496;DHT22;3789;47.064;15.482;2023-03-12T14:54:29;10.90;81.40
7496;DHT22;3789;47.064;15.482;2023-03-12T14:56:58;10.90;79.10
7496;DHT22;3789;47.064;15.482;2023-03-12T14:59:35;10.70;80.80
7496;DHT22;3789;47.064;15.482;2023-03-12T15:02:18;10.60;77.30
7496;DHT22;3789;47.064;15.482;2023-03-12T15:04:51;10.40;77.30
7496;DHT22;3789;47.064;15.482;2023-03-12T15:07:36;10.20;78.80
7496;DHT22;3789;47.064;15.482;2023-03-12T15:10:24;10.00;81.50
7496;DHT22;3789;47.064;15.482;2023-03-12T15:12:55;10.00;80.60
7496;DHT22;3789;47.064;15.482;2023-03-12T15:15:47;10.00;80.80
7496;DHT22;3789;47.064;15.482;2023-03-12T15:18:17;9.90;81.20
7496;DHT22;3789;47.064;15.482;2023-03-12T15:20:47;9.90;80.80
7496;DHT22;3789;47.064;15.482;2023-03-12T15:23:18;9.90;81.10
7496;DHT22;3789;47.064;15.482;2023-03-12T15:26:34;9.90;80.40
7496;DHT22;3789;47.064;15.482;2023-03-12T15:28:41;9.80;80.80
7496;DHT22;3789;47.064;15.482;2023-03-12T15:31:11;9.50;85.20
7496;DHT22;3789;47.064;15.482;2023-03-12T15:33:42;9.40;80.90
7496;DHT22;3789;47.064;15.482;2023-03-12T15:36:23;9.40;84.00
7496;DHT22;3789;47.064;15.482;2023-03-12T15:39:28;9.30;81.50
7496;DHT22;3789;47.064;15.482;2023-03-12T15:42:10;9.10;82.60
7496;DHT22;3789;47.064;15.482;2023-03-12T15:44:56;9.00;82.30
7496;DHT22;3789;47.064;15.482;2023-03-12T15:47:30;9.00;82.10
7496;DHT22;3789;47.064;15.482;2023-03-12T15:50:26;9.00;84.80
7496;DHT22;3789;47.064;15.482;2023-03-12T15:55:41;9.00;82.50
7496;DHT22;3789;47.064;15.482;2023-03-12T16:01:21;7.10;74.80
7496;DHT22;3789;47.064;15.482;2023-03-12T16:03:55;4.20;76.40
7496;DHT22;3789;47.064;15.482;2023-03-12T16:06:30;2.30;80.50
7496;DHT22;3789;47.064;15.482;2023-03-12T16:09:01;1.10;82.70
7496;DHT22;3789;47.064;15.482;2023-03-12T16:11:31;0.20;85.70
7496;DHT22;3789;47.064;15.482;2023-03-12T16:14:16;-0.40;87.20
7496;DHT22;3789;47.064;15.482;2023-03-12T16:16:47;-0.80;89.70
7496;DHT22;3789;47.064;15.482;2023-03-12T16:19:16;-1.10;91.00
7496;DHT22;3789;47.064;15.482;2023-03-12T16:21:48;-1.20;91.80
7496;DHT22;3789;47.064;15.482;2023-03-12T16:24:16;-1.40;92.20
7496;DHT22;3789;47.064;15.482;2023-03-12T16:26:53;-1.50;92.70
7496;DHT22;3789;47.064;15.482;2023-03-12T16:29:35;-1.60;93.30
7496;DHT22;3789;47.064;15.482;2023-03-12T16:32:14;-0.80;99.90
7496;DHT22;3789;47.064;15.482;2023-03-12T16:34:44;0.40;99.90
7496;DHT22;3789;47.064;15.482;2023-03-12T16:37:14;1.30;99.90
7496;DHT22;3789;47.064;15.482;2023-03-12T16:39:42;2.20;99.90
7496;DHT22;3789;47.064;15.482;2023-03-12T16:42:17;2.80;99.90
7496;DHT22;3789;47.064;15.482;2023-03-12T16:44:47;3.40;99.90
7496;DHT22;3789;47.064;15.482;2023-03-12T16:47:26;3.90;99.90
7496;DHT22;3789;47.064;15.482;2023-03-12T16:49:56;4.30;99.90
7496;DHT22;3789;47.064;15.482;2023-03-12T16:52:24;4.70;99.90
7496;DHT22;3789;47.064;15.482;2023-03-12T16:54:57;4.90;99.90
7496;DHT22;3789;47.064;15.482;2023-03-12T16:57:51;5.10;99.90
7496;DHT22;3789;47.064;15.482;2023-03-12T17:00:27;5.20;99.90
7496;DHT22;3789;47.064;15.482;2023-03-12T17:02:57;5.30;99.90
7496;DHT22;3789;47.064;15.482;2023-03-12T17:05:28;5.40;99.90
7496;DHT22;3789;47.064;15.482;2023-03-12T17:07:58;5.40;99.90
7496;DHT22;3789;47.064;15.482;2023-03-12T17:10:27;5.50;99.90
7496;DHT22;3789;47.064;15.482;2023-03-12T17:12:54;5.50;99.90
7496;DHT22;3789;47.064;15.482;2023-03-12T17:15:28;5.60;99.90
7496;DHT22;3789;47.064;15.482;2023-03-12T17:18:03;5.60;99.90
7496;DHT22;3789;47.064;15.482;2023-03-12T17:20:34;5.60;99.90
7496;DHT22;3789;47.064;15.482;2023-03-12T17:23:04;5.70;99.90
7496;DHT22;3789;47.064;15.482;2023-03-12T17:25:40;5.70;99.90
7496;DHT22;3789;47.064;15.482;2023-03-12T17:28:10;5.70;99.90
7496;DHT22;3789;47.064;15.482;2023-03-12T17:30:37;5.70;99.90
7496;DHT22;3789;47.064;15.482;2023-03-12T17:33:09;5.70;99.90
7496;DHT22;3789;47.064;15.482;2023-03-12T17:35:41;5.80;99.90
7496;DHT22;3789;47.064;15.482;2023-03-12T17:38:11;5.70;99.90
7496;DHT22;3789;47.064;15.482;2023-03-12T17:40:41;5.80;99.90
7496;DHT22;3789;47.064;15.482;2023-03-12T17:43:10;5.80;99.90
7496;DHT22;3789;47.064;15.482;2023-03-12T17:45:41;5.80;99.90
7496;DHT22;3789;47.064;15.482;2023-03-12T17:48:13;5.70;99.90
7496;DHT22;3789;47.064;15.482;2023-03-12T17:50:49;5.70;99.90
7496;DHT22;3789;47.064;15.482;2023-03-12T17:53:26;5.60;99.90
7496;DHT22;3789;47.064;15.482;2023-03-12T17:55:58;5.70;99.90
7496;DHT22;3789;47.064;15.482;2023-03-12T17:58:28;5.70;99.90
7496;DHT22;3789;47.064;15.482;2023-03-12T18:01:03;5.60;99.90
7496;DHT22;3789;47.064;15.482;2023-03-12T18:03:33;5.60;99.90
7496;DHT22;3789;47.064;15.482;2023-03-12T18:06:03;5.60;99.90
7496;DHT22;3789;47.064;15.482;2023-03-12T18:08:39;5.50;99.90
7496;DHT22;3789;47.064;15.482;2023-03-12T18:11:09;5.40;99.90
7496;DHT22;3789;47.064;15.482;2023-03-12T18:13:41;5.40;99.90
7496;DHT22;3789;47.064;15.482;2023-03-12T18:16:09;5.40;99.90